Terminal Aerodrome Forecast
Issued by NWS

Home | Current Version | Previous Version | Text Only | Print | Product List | Glossary On
Versions: 1 2 3 4 5 6 7 8 9 10 11 12 13 14 15 16 17 18 19 20 21
000
FTUS43 KGRB 242335
TAFRHI
TAF
KRHI 242335Z 2500/2524 02012G20KT 2SM -SN BKN015 OVC025
      TEMPO 2500/2502 1SM -SN BR
     FM250200 36012G20KT 3SM -SN OVC015
     FM251000 32011G18KT P6SM -SN SCT015 OVC025 PROB30 2510/2514 4SM
      -SN BKN015
     FM251400 31013G21KT P6SM -SN SCT015 OVC035=

USA.gov is the U.S. government's official web portal to all federal, state and local government web resources and services.